sensor_id;sensor_type;location;lat;lon;timestamp;P1;durP1;ratioP1;P2;durP2;ratioP2
53618;SDS011;68717;53.040;18.488;2023-04-25T00:00:07;7.90;;;4.07;;
53618;SDS011;68717;53.040;18.488;2023-04-25T00:00:31;6.40;;;3.53;;
53618;SDS011;68717;53.040;18.488;2023-04-25T00:01:04;7.35;;;3.80;;
53618;SDS011;68717;53.040;18.488;2023-04-25T00:01:17;7.88;;;3.83;;
53618;SDS011;68717;53.040;18.488;2023-04-25T00:01:31;8.38;;;3.70;;
53618;SDS011;68717;53.040;18.488;2023-04-25T00:01:47;7.35;;;3.72;;
53618;SDS011;68717;53.040;18.488;2023-04-25T00:01:59;6.82;;;3.58;;
53618;SDS011;68717;53.040;18.488;2023-04-25T00:02:12;7.03;;;3.50;;
53618;SDS011;68717;53.040;18.488;2023-04-25T00:02:25;7.72;;;3.42;;
53618;SDS011;68717;53.040;18.488;2023-04-25T00:02:39;6.95;;;3.40;;
53618;SDS011;68717;53.040;18.488;2023-04-25T00:02:52;6.75;;;3.53;;
53618;SDS011;68717;53.040;18.488;2023-04-25T00:03:05;6.68;;;3.67;;
53618;SDS011;68717;53.040;18.488;2023-04-25T00:03:21;7.15;;;3.50;;
53618;SDS011;68717;53.040;18.488;2023-04-25T00:03:34;7.78;;;3.45;;
53618;SDS011;68717;53.040;18.488;2023-04-25T00:03:47;6.88;;;3.50;;
53618;SDS011;68717;53.040;18.488;2023-04-25T00:04:01;6.13;;;3.45;;
53618;SDS011;68717;53.040;18.488;2023-04-25T00:04:14;6.05;;;3.45;;
53618;SDS011;68717;53.040;18.488;2023-04-25T00:04:28;6.30;;;3.42;;
53618;SDS011;68717;53.040;18.488;2023-04-25T00:04:42;7.28;;;3.55;;
53618;SDS011;68717;53.040;18.488;2023-04-25T00:04:57;7.72;;;3.40;;
53618;SDS011;68717;53.040;18.488;2023-04-25T00:05:11;6.70;;;3.35;;
53618;SDS011;68717;53.040;18.488;2023-04-25T00:05:24;6.10;;;3.42;;
53618;SDS011;68717;53.040;18.488;2023-04-25T00:05:37;5.93;;;3.53;;
53618;SDS011;68717;53.040;18.488;2023-04-25T00:05:51;5.97;;;3.35;;
53618;SDS011;68717;53.040;18.488;2023-04-25T00:06:04;5.55;;;3.15;;
53618;SDS011;68717;53.040;18.488;2023-04-25T00:06:18;5.70;;;3.20;;
53618;SDS011;68717;53.040;18.488;2023-04-25T00:06:31;6.05;;;3.30;;
53618;SDS011;68717;53.040;18.488;2023-04-25T00:06:44;6.72;;;3.47;;
53618;SDS011;68717;53.040;18.488;2023-04-25T00:06:57;7.20;;;3.50;;
53618;SDS011;68717;53.040;18.488;2023-04-25T00:07:09;6.88;;;3.47;;
53618;SDS011;68717;53.040;18.488;2023-04-25T00:07:24;6.50;;;3.50;;
53618;SDS011;68717;53.040;18.488;2023-04-25T00:07:38;6.45;;;3.40;;
53618;SDS011;68717;53.040;18.488;2023-04-25T00:07:51;6.15;;;3.30;;
53618;SDS011;68717;53.040;18.488;2023-04-25T00:08:04;6.82;;;3.30;;
53618;SDS011;68717;53.040;18.488;2023-04-25T00:08:17;7.25;;;3.40;;
53618;SDS011;68717;53.040;18.488;2023-04-25T00:08:30;6.50;;;3.35;;
53618;SDS011;68717;53.040;18.488;2023-04-25T00:08:43;6.53;;;3.30;;
53618;SDS011;68717;53.040;18.488;2023-04-25T00:08:56;7.43;;;3.58;;
53618;SDS011;68717;53.040;18.488;2023-04-25T00:09:09;6.97;;;3.55;;
53618;SDS011;68717;53.040;18.488;2023-04-25T00:09:41;5.70;;;3.47;;
53618;SDS011;68717;53.040;18.488;2023-04-25T00:09:54;5.55;;;3.35;;
53618;SDS011;68717;53.040;18.488;2023-04-25T00:10:08;5.93;;;3.30;;
53618;SDS011;68717;53.040;18.488;2023-04-25T00:10:21;6.45;;;3.50;;
53618;SDS011;68717;53.040;18.488;2023-04-25T00:10:35;6.03;;;3.40;;
53618;SDS011;68717;53.040;18.488;2023-04-25T00:10:48;5.82;;;3.35;;
53618;SDS011;68717;53.040;18.488;2023-04-25T00:11:01;6.20;;;3.30;;
53618;SDS011;68717;53.040;18.488;2023-04-25T00:11:14;6.60;;;3.40;;
53618;SDS011;68717;53.040;18.488;2023-04-25T00:11:27;6.70;;;3.40;;
53618;SDS011;68717;53.040;18.488;2023-04-25T00:11:39;6.40;;;3.28;;
53618;SDS011;68717;53.040;18.488;2023-04-25T00:11:52;6.32;;;3.20;;
53618;SDS011;68717;53.040;18.488;2023-04-25T00:12:06;6.78;;;3.30;;
53618;SDS011;68717;53.040;18.488;2023-04-25T00:12:19;7.10;;;3.50;;
53618;SDS011;68717;53.040;18.488;2023-04-25T00:12:34;6.35;;;3.40;;
53618;SDS011;68717;53.040;18.488;2023-04-25T00:12:48;6.45;;;3.40;;
53618;SDS011;68717;53.040;18.488;2023-04-25T00:13:01;6.35;;;3.42;;
53618;SDS011;68717;53.040;18.488;2023-04-25T00:13:14;7.35;;;3.40;;
53618;SDS011;68717;53.040;18.488;2023-04-25T00:13:29;7.40;;;3.65;;
53618;SDS011;68717;53.040;18.488;2023-04-25T00:13:42;7.30;;;3.53;;
53618;SDS011;68717;53.040;18.488;2023-04-25T00:13:56;7.35;;;3.47;;
53618;SDS011;68717;53.040;18.488;2023-04-25T00:14:09;6.82;;;3.42;;
53618;SDS011;68717;53.040;18.488;2023-04-25T00:14:22;6.95;;;3.47;;
53618;SDS011;68717;53.040;18.488;2023-04-25T00:14:34;7.22;;;3.55;;
53618;SDS011;68717;53.040;18.488;2023-04-25T00:14:47;7.22;;;3.63;;
53618;SDS011;68717;53.040;18.488;2023-04-25T00:15:01;7.22;;;3.85;;
53618;SDS011;68717;53.040;18.488;2023-04-25T00:15:15;7.32;;;3.70;;
53618;SDS011;68717;53.040;18.488;2023-04-25T00:15:28;7.07;;;3.53;;
53618;SDS011;68717;53.040;18.488;2023-04-25T00:15:43;6.70;;;3.45;;
53618;SDS011;68717;53.040;18.488;2023-04-25T00:15:56;6.38;;;3.38;;
53618;SDS011;68717;53.040;18.488;2023-04-25T00:16:10;6.97;;;3.40;;
53618;SDS011;68717;53.040;18.488;2023-04-25T00:16:23;6.97;;;3.58;;
53618;SDS011;68717;53.040;18.488;2023-04-25T00:16:35;6.88;;;3.65;;
53618;SDS011;68717;53.040;18.488;2023-04-25T00:16:50;8.07;;;3.65;;
53618;SDS011;68717;53.040;18.488;2023-04-25T00:17:04;8.57;;;3.50;;
53618;SDS011;68717;53.040;18.488;2023-04-25T00:17:18;7.20;;;3.50;;
53618;SDS011;68717;53.040;18.488;2023-04-25T00:17:31;7.00;;;3.60;;
53618;SDS011;68717;53.040;18.488;2023-04-25T00:17:44;6.38;;;3.47;;
53618;SDS011;68717;53.040;18.488;2023-04-25T00:17:57;6.43;;;3.28;;
53618;SDS011;68717;53.040;18.488;2023-04-25T00:18:10;6.03;;;3.33;;
53618;SDS011;68717;53.040;18.488;2023-04-25T00:18:23;6.70;;;3.40;;
53618;SDS011;68717;53.040;18.488;2023-04-25T00:18:37;6.93;;;3.42;;
53618;SDS011;68717;53.040;18.488;2023-04-25T00:18:49;6.68;;;3.45;;
53618;SDS011;68717;53.040;18.488;2023-04-25T00:19:05;6.65;;;3.42;;
53618;SDS011;68717;53.040;18.488;2023-04-25T00:19:19;5.80;;;3.38;;
53618;SDS011;68717;53.040;18.488;2023-04-25T00:19:32;6.10;;;3.20;;
53618;SDS011;68717;53.040;18.488;2023-04-25T00:19:46;6.28;;;3.30;;
53618;SDS011;68717;53.040;18.488;2023-04-25T00:19:59;6.72;;;3.30;;
53618;SDS011;68717;53.040;18.488;2023-04-25T00:20:12;7.38;;;3.30;;
53618;SDS011;68717;53.040;18.488;2023-04-25T00:20:25;6.75;;;3.25;;
53618;SDS011;68717;53.040;18.488;2023-04-25T00:20:37;6.63;;;3.28;;
53618;SDS011;68717;53.040;18.488;2023-04-25T00:20:50;8.25;;;3.35;;
53618;SDS011;68717;53.040;18.488;2023-04-25T00:21:03;8.25;;;3.40;;
53618;SDS011;68717;53.040;18.488;2023-04-25T00:21:18;6.22;;;3.15;;
53618;SDS011;68717;53.040;18.488;2023-04-25T00:21:32;6.57;;;3.20;;
53618;SDS011;68717;53.040;18.488;2023-04-25T00:21:45;6.10;;;3.15;;
53618;SDS011;68717;53.040;18.488;2023-04-25T00:21:58;5.63;;;3.40;;
53618;SDS011;68717;53.040;18.488;2023-04-25T00:22:11;6.20;;;3.40;;
53618;SDS011;68717;53.040;18.488;2023-04-25T00:22:24;5.72;;;3.25;;
53618;SDS011;68717;53.040;18.488;2023-04-25T00:22:36;6.13;;;3.25;;
53618;SDS011;68717;53.040;18.488;2023-04-25T00:22:49;6.43;;;3.20;;
53618;SDS011;68717;53.040;18.488;2023-04-25T00:23:04;6.30;;;3.45;;
53618;SDS011;68717;53.040;18.488;2023-04-25T00:23:17;5.95;;;3.40;;
53618;SDS011;68717;53.040;18.488;2023-04-25T00:23:30;6.50;;;3.42;;
53618;SDS011;68717;53.040;18.488;2023-04-25T00:23:43;7.20;;;3.53;;
53618;SDS011;68717;53.040;18.488;2023-04-25T00:23:57;7.38;;;3.80;;
53618;SDS011;68717;53.040;18.488;2023-04-25T00:24:10;6.75;;;3.70;;
53618;SDS011;68717;53.040;18.488;2023-04-25T00:24:23;7.28;;;3.38;;
53618;SDS011;68717;53.040;18.488;2023-04-25T00:24:37;7.22;;;3.45;;
53618;SDS011;68717;53.040;18.488;2023-04-25T00:24:49;6.00;;;3.42;;
53618;SDS011;68717;53.040;18.488;2023-04-25T00:25:02;6.22;;;3.40;;
53618;SDS011;68717;53.040;18.488;2023-04-25T00:25:16;5.97;;;3.35;;
53618;SDS011;68717;53.040;18.488;2023-04-25T00:25:29;6.32;;;3.50;;
53618;SDS011;68717;53.040;18.488;2023-04-25T00:25:42;6.50;;;3.60;;
53618;SDS011;68717;53.040;18.488;2023-04-25T00:25:55;6.20;;;3.70;;
53618;SDS011;68717;53.040;18.488;2023-04-25T00:26:08;6.68;;;3.80;;
53618;SDS011;68717;53.040;18.488;2023-04-25T00:26:21;7.57;;;3.60;;
53618;SDS011;68717;53.040;18.488;2023-04-25T00:26:33;7.30;;;3.40;;
53618;SDS011;68717;53.040;18.488;2023-04-25T00:26:47;7.28;;;3.50;;
53618;SDS011;68717;53.040;18.488;2023-04-25T00:27:00;7.25;;;3.75;;
53618;SDS011;68717;53.040;18.488;2023-04-25T00:27:13;7.00;;;3.80;;
53618;SDS011;68717;53.040;18.488;2023-04-25T00:27:26;7.15;;;3.75;;
53618;SDS011;68717;53.040;18.488;2023-04-25T00:27:39;7.03;;;3.65;;
53618;SDS011;68717;53.040;18.488;2023-04-25T00:27:54;6.70;;;3.60;;
53618;SDS011;68717;53.040;18.488;2023-04-25T00:28:07;7.38;;;3.70;;
53618;SDS011;68717;53.040;18.488;2023-04-25T00:28:19;7.95;;;3.50;;
53618;SDS011;68717;53.040;18.488;2023-04-25T00:28:33;7.72;;;3.72;;
53618;SDS011;68717;53.040;18.488;2023-04-25T00:28:46;7.53;;;3.95;;
53618;SDS011;68717;53.040;18.488;2023-04-25T00:28:59;7.43;;;4.03;;
53618;SDS011;68717;53.040;18.488;2023-04-25T00:29:12;7.25;;;3.90;;
53618;SDS011;68717;53.040;18.488;2023-04-25T00:29:25;8.07;;;3.85;;
53618;SDS011;68717;53.040;18.488;2023-04-25T00:29:38;8.27;;;3.80;;
53618;SDS011;68717;53.040;18.488;2023-04-25T00:29:50;7.95;;;3.90;;
53618;SDS011;68717;53.040;18.488;2023-04-25T00:30:05;8.05;;;3.92;;
53618;SDS011;68717;53.040;18.488;2023-04-25T00:30:18;7.47;;;3.80;;
53618;SDS011;68717;53.040;18.488;2023-04-25T00:30:31;6.97;;;3.90;;
53618;SDS011;68717;53.040;18.488;2023-04-25T00:30:44;7.28;;;4.05;;
53618;SDS011;68717;53.040;18.488;2023-04-25T00:30:56;7.32;;;4.07;;
53618;SDS011;68717;53.040;18.488;2023-04-25T00:31:09;7.03;;;3.90;;
53618;SDS011;68717;53.040;18.488;2023-04-25T00:31:23;6.72;;;3.88;;
53618;SDS011;68717;53.040;18.488;2023-04-25T00:31:35;6.50;;;3.70;;
53618;SDS011;68717;53.040;18.488;2023-04-25T00:31:50;7.07;;;3.70;;
53618;SDS011;68717;53.040;18.488;2023-04-25T00:32:02;8.05;;;3.97;;
53618;SDS011;68717;53.040;18.488;2023-04-25T00:32:15;7.95;;;4.00;;
53618;SDS011;68717;53.040;18.488;2023-04-25T00:32:28;7.53;;;4.10;;
53618;SDS011;68717;53.040;18.488;2023-04-25T00:32:42;7.47;;;4.15;;
53618;SDS011;68717;53.040;18.488;2023-04-25T00:32:55;7.72;;;4.20;;
53618;SDS011;68717;53.040;18.488;2023-04-25T00:33:08;7.07;;;4.03;;
53618;SDS011;68717;53.040;18.488;2023-04-25T00:33:21;6.03;;;3.80;;
53618;SDS011;68717;53.040;18.488;2023-04-25T00:33:34;7.00;;;4.00;;
53618;SDS011;68717;53.040;18.488;2023-04-25T00:33:47;7.95;;;4.40;;
53618;SDS011;68717;53.040;18.488;2023-04-25T00:34:00;8.50;;;4.40;;
53618;SDS011;68717;53.040;18.488;2023-04-25T00:34:14;7.45;;;4.05;;
53618;SDS011;68717;53.040;18.488;2023-04-25T00:34:27;7.13;;;3.80;;
53618;SDS011;68717;53.040;18.488;2023-04-25T00:34:40;6.47;;;3.67;;
53618;SDS011;68717;53.040;18.488;2023-04-25T00:34:52;5.80;;;3.78;;
53618;SDS011;68717;53.040;18.488;2023-04-25T00:35:05;6.90;;;3.80;;
53618;SDS011;68717;53.040;18.488;2023-04-25T00:35:18;8.13;;;4.00;;
53618;SDS011;68717;53.040;18.488;2023-04-25T00:35:31;8.02;;;4.10;;
53618;SDS011;68717;53.040;18.488;2023-04-25T00:35:44;7.03;;;4.00;;
53618;SDS011;68717;53.040;18.488;2023-04-25T00:35:57;7.10;;;3.97;;
53618;SDS011;68717;53.040;18.488;2023-04-25T00:36:10;7.43;;;3.90;;
53618;SDS011;68717;53.040;18.488;2023-04-25T00:36:23;7.65;;;3.95;;
53618;SDS011;68717;53.040;18.488;2023-04-25T00:36:36;7.45;;;4.00;;
53618;SDS011;68717;53.040;18.488;2023-04-25T00:36:50;8.02;;;3.88;;
53618;SDS011;68717;53.040;18.488;2023-04-25T00:37:02;7.28;;;3.90;;
53618;SDS011;68717;53.040;18.488;2023-04-25T00:37:15;7.10;;;4.18;;
53618;SDS011;68717;53.040;18.488;2023-04-25T00:37:30;6.97;;;4.10;;
53618;SDS011;68717;53.040;18.488;2023-04-25T00:37:43;7.03;;;4.05;;
53618;SDS011;68717;53.040;18.488;2023-04-25T00:37:56;7.30;;;4.10;;
53618;SDS011;68717;53.040;18.488;2023-04-25T00:38:08;7.10;;;4.15;;
53618;SDS011;68717;53.040;18.488;2023-04-25T00:38:21;7.18;;;4.25;;
53618;SDS011;68717;53.040;18.488;2023-04-25T00:38:35;7.75;;;4.28;;
53618;SDS011;68717;53.040;18.488;2023-04-25T00:38:47;7.35;;;4.15;;
53618;SDS011;68717;53.040;18.488;2023-04-25T00:39:00;6.88;;;4.10;;
53618;SDS011;68717;53.040;18.488;2023-04-25T00:39:13;7.20;;;4.30;;
53618;SDS011;68717;53.040;18.488;2023-04-25T00:39:26;7.00;;;4.38;;
53618;SDS011;68717;53.040;18.488;2023-04-25T00:39:39;7.25;;;4.65;;
53618;SDS011;68717;53.040;18.488;2023-04-25T00:39:51;7.55;;;4.55;;
53618;SDS011;68717;53.040;18.488;2023-04-25T00:40:07;7.70;;;4.22;;
53618;SDS011;68717;53.040;18.488;2023-04-25T00:40:22;7.22;;;4.32;;
53618;SDS011;68717;53.040;18.488;2023-04-25T00:40:35;7.00;;;4.43;;
53618;SDS011;68717;53.040;18.488;2023-04-25T00:40:47;7.20;;;4.30;;
53618;SDS011;68717;53.040;18.488;2023-04-25T00:41:00;7.35;;;4.13;;
53618;SDS011;68717;53.040;18.488;2023-04-25T00:41:13;7.03;;;4.07;;
53618;SDS011;68717;53.040;18.488;2023-04-25T00:41:26;7.18;;;4.28;;
53618;SDS011;68717;53.040;18.488;2023-04-25T00:41:42;7.00;;;4.07;;
53618;SDS011;68717;53.040;18.488;2023-04-25T00:41:55;7.40;;;4.18;;
53618;SDS011;68717;53.040;18.488;2023-04-25T00:42:08;7.60;;;4.38;;
53618;SDS011;68717;53.040;18.488;2023-04-25T00:42:22;6.68;;;4.28;;
53618;SDS011;68717;53.040;18.488;2023-04-25T00:42:35;7.70;;;4.20;;
53618;SDS011;68717;53.040;18.488;2023-04-25T00:42:48;7.88;;;4.10;;
53618;SDS011;68717;53.040;18.488;2023-04-25T00:43:04;7.00;;;4.15;;
53618;SDS011;68717;53.040;18.488;2023-04-25T00:43:17;7.07;;;4.28;;
53618;SDS011;68717;53.040;18.488;2023-04-25T00:43:30;7.03;;;4.47;;
53618;SDS011;68717;53.040;18.488;2023-04-25T00:43:44;6.78;;;4.40;;
53618;SDS011;68717;53.040;18.488;2023-04-25T00:43:58;6.88;;;4.30;;
53618;SDS011;68717;53.040;18.488;2023-04-25T00:44:12;7.18;;;4.47;;
53618;SDS011;68717;53.040;18.488;2023-04-25T00:44:29;7.70;;;4.57;;
53618;SDS011;68717;53.040;18.488;2023-04-25T00:44:42;7.57;;;4.43;;
53618;SDS011;68717;53.040;18.488;2023-04-25T00:44:57;7.35;;;4.50;;
53618;SDS011;68717;53.040;18.488;2023-04-25T00:45:12;7.63;;;4.65;;
53618;SDS011;68717;53.040;18.488;2023-04-25T00:45:27;8.65;;;4.97;;
53618;SDS011;68717;53.040;18.488;2023-04-25T00:45:41;8.90;;;4.75;;
53618;SDS011;68717;53.040;18.488;2023-04-25T00:45:56;8.55;;;4.43;;
53618;SDS011;68717;53.040;18.488;2023-04-25T00:46:09;9.10;;;4.70;;
53618;SDS011;68717;53.040;18.488;2023-04-25T00:46:22;8.07;;;4.68;;
53618;SDS011;68717;53.040;18.488;2023-04-25T00:46:35;7.32;;;4.50;;
53618;SDS011;68717;53.040;18.488;2023-04-25T00:46:50;7.13;;;4.60;;
53618;SDS011;68717;53.040;18.488;2023-04-25T00:47:03;7.40;;;4.65;;
53618;SDS011;68717;53.040;18.488;2023-04-25T00:47:16;8.13;;;4.85;;
53618;SDS011;68717;53.040;18.488;2023-04-25T00:47:31;8.65;;;4.82;;
53618;SDS011;68717;53.040;18.488;2023-04-25T00:47:45;8.07;;;4.32;;
53618;SDS011;68717;53.040;18.488;2023-04-25T00:47:58;7.88;;;4.30;;
53618;SDS011;68717;53.040;18.488;2023-04-25T00:48:11;8.15;;;4.72;;
53618;SDS011;68717;53.040;18.488;2023-04-25T00:48:26;7.88;;;4.47;;
53618;SDS011;68717;53.040;18.488;2023-04-25T00:48:38;7.97;;;4.40;;
53618;SDS011;68717;53.040;18.488;2023-04-25T00:48:51;7.90;;;4.60;;
53618;SDS011;68717;53.040;18.488;2023-04-25T00:49:05;7.70;;;4.75;;
53618;SDS011;68717;53.040;18.488;2023-04-25T00:49:18;9.15;;;4.75;;
53618;SDS011;68717;53.040;18.488;2023-04-25T00:49:30;9.15;;;4.63;;
53618;SDS011;68717;53.040;18.488;2023-04-25T00:49:43;7.50;;;4.55;;
53618;SDS011;68717;53.040;18.488;2023-04-25T00:49:56;7.82;;;4.63;;
53618;SDS011;68717;53.040;18.488;2023-04-25T00:50:09;8.15;;;4.75;;
53618;SDS011;68717;53.040;18.488;2023-04-25T00:50:22;8.13;;;4.60;;
53618;SDS011;68717;53.040;18.488;2023-04-25T00:50:36;8.05;;;4.40;;
53618;SDS011;68717;53.040;18.488;2023-04-25T00:50:51;7.95;;;4.80;;
53618;SDS011;68717;53.040;18.488;2023-04-25T00:51:05;7.65;;;5.20;;
53618;SDS011;68717;53.040;18.488;2023-04-25T00:51:19;8.43;;;5.10;;
53618;SDS011;68717;53.040;18.488;2023-04-25T00:51:33;8.32;;;4.75;;
53618;SDS011;68717;53.040;18.488;2023-04-25T00:51:46;7.38;;;4.75;;
53618;SDS011;68717;53.040;18.488;2023-04-25T00:51:59;7.90;;;5.00;;
53618;SDS011;68717;53.040;18.488;2023-04-25T00:52:13;8.10;;;4.90;;
53618;SDS011;68717;53.040;18.488;2023-04-25T00:52:26;8.00;;;4.63;;
53618;SDS011;68717;53.040;18.488;2023-04-25T00:52:39;7.82;;;4.75;;
53618;SDS011;68717;53.040;18.488;2023-04-25T00:52:53;7.00;;;4.85;;
53618;SDS011;68717;53.040;18.488;2023-04-25T00:53:06;7.20;;;4.80;;
53618;SDS011;68717;53.040;18.488;2023-04-25T00:53:19;8.40;;;5.00;;
53618;SDS011;68717;53.040;18.488;2023-04-25T00:53:33;9.25;;;5.10;;
53618;SDS011;68717;53.040;18.488;2023-04-25T00:53:46;8.57;;;4.95;;
53618;SDS011;68717;53.040;18.488;2023-04-25T00:54:02;7.65;;;4.70;;
53618;SDS011;68717;53.040;18.488;2023-04-25T00:54:15;7.43;;;4.80;;
53618;SDS011;68717;53.040;18.488;2023-04-25T00:54:28;7.05;;;4.82;;
53618;SDS011;68717;53.040;18.488;2023-04-25T00:54:42;7.43;;;4.93;;
53618;SDS011;68717;53.040;18.488;2023-04-25T00:54:56;8.55;;;4.90;;
53618;SDS011;68717;53.040;18.488;2023-04-25T00:55:09;9.02;;;4.80;;
53618;SDS011;68717;53.040;18.488;2023-04-25T00:55:23;8.90;;;4.82;;
53618;SDS011;68717;53.040;18.488;2023-04-25T00:55:36;7.85;;;4.90;;
53618;SDS011;68717;53.040;18.488;2023-04-25T00:55:49;8.32;;;4.97;;
53618;SDS011;68717;53.040;18.488;2023-04-25T00:56:03;8.57;;;4.90;;
53618;SDS011;68717;53.040;18.488;2023-04-25T00:56:17;8.82;;;5.05;;
53618;SDS011;68717;53.040;18.488;2023-04-25T00:56:30;9.80;;;5.38;;
53618;SDS011;68717;53.040;18.488;2023-04-25T00:56:42;9.30;;;5.30;;
53618;SDS011;68717;53.040;18.488;2023-04-25T00:56:57;8.35;;;4.93;;
53618;SDS011;68717;53.040;18.488;2023-04-25T00:57:10;7.88;;;4.80;;
53618;SDS011;68717;53.040;18.488;2023-04-25T00:57:23;7.55;;;4.88;;
53618;SDS011;68717;53.040;18.488;2023-04-25T00:57:37;7.47;;;5.00;;
53618;SDS011;68717;53.040;18.488;2023-04-25T00:57:51;7.90;;;4.85;;
53618;SDS011;68717;53.040;18.488;2023-04-25T00:58:03;8.45;;;5.05;;
53618;SDS011;68717;53.040;18.488;2023-04-25T00:58:16;8.57;;;5.38;;
53618;SDS011;68717;53.040;18.488;2023-04-25T00:58:29;8.32;;;5.10;;
53618;SDS011;68717;53.040;18.488;2023-04-25T00:58:42;8.80;;;5.10;;
53618;SDS011;68717;53.040;18.488;2023-04-25T00:58:55;9.35;;;5.32;;
53618;SDS011;68717;53.040;18.488;2023-04-25T00:59:09;8.10;;;5.13;;
53618;SDS011;68717;53.040;18.488;2023-04-25T00:59:22;8.02;;;5.05;;
53618;SDS011;68717;53.040;18.488;2023-04-25T00:59:36;9.23;;;5.18;;
53618;SDS011;68717;53.040;18.488;2023-04-25T00:59:50;8.73;;;5.40;;
53618;SDS011;68717;53.040;18.488;2023-04-25T01:00:04;7.50;;;5.30;;
53618;SDS011;68717;53.040;18.488;2023-04-25T01:00:21;7.88;;;5.30;;
53618;SDS011;68717;53.040;18.488;2023-04-25T01:00:35;8.43;;;5.35;;
53618;SDS011;68717;53.040;18.488;2023-04-25T01:00:49;8.05;;;5.10;;
53618;SDS011;68717;53.040;18.488;2023-04-25T01:01:04;7.55;;;4.97;;
53618;SDS011;68717;53.040;18.488;2023-04-25T01:01:18;8.20;;;5.32;;
53618;SDS011;68717;53.040;18.488;2023-04-25T01:01:31;8.80;;;5.25;;
53618;SDS011;68717;53.040;18.488;2023-04-25T01:01:45;9.35;;;5.22;;
53618;SDS011;68717;53.040;18.488;2023-04-25T01:01:59;8.85;;;5.32;;
53618;SDS011;68717;53.040;18.488;2023-04-25T01:02:13;8.50;;;5.43;;
53618;SDS011;68717;53.040;18.488;2023-04-25T01:02:27;8.65;;;5.38;;
53618;SDS011;68717;53.040;18.488;2023-04-25T01:02:41;9.18;;;5.28;;
53618;SDS011;68717;53.040;18.488;2023-04-25T01:02:54;9.27;;;5.50;;
53618;SDS011;68717;53.040;18.488;2023-04-25T01:03:07;9.13;;;5.50;;
53618;SDS011;68717;53.040;18.488;2023-04-25T01:03:22;8.48;;;5.50;;
53618;SDS011;68717;53.040;18.488;2023-04-25T01:03:35;9.43;;;5.60;;
53618;SDS011;68717;53.040;18.488;2023-04-25T01:03:53;9.00;;;5.70;;
53618;SDS011;68717;53.040;18.488;2023-04-25T01:04:07;8.68;;;5.90;;
53618;SDS011;68717;53.040;18.488;2023-04-25T01:04:20;8.43;;;5.80;;
53618;SDS011;68717;53.040;18.488;2023-04-25T01:04:34;8.13;;;5.63;;
53618;SDS011;68717;53.040;18.488;2023-04-25T01:04:47;8.65;;;5.70;;
53618;SDS011;68717;53.040;18.488;2023-04-25T01:05:00;8.75;;;5.75;;
53618;SDS011;68717;53.040;18.488;2023-04-25T01:05:14;8.63;;;5.65;;
53618;SDS011;68717;53.040;18.488;2023-04-25T01:05:27;8.65;;;5.45;;
53618;SDS011;68717;53.040;18.488;2023-04-25T01:05:40;9.10;;;5.20;;
53618;SDS011;68717;53.040;18.488;2023-04-25T01:05:53;9.50;;;5.28;;
53618;SDS011;68717;53.040;18.488;2023-04-25T01:06:07;9.18;;;5.25;;
53618;SDS011;68717;53.040;18.488;2023-04-25T01:06:20;8.55;;;5.43;;
53618;SDS011;68717;53.040;18.488;2023-04-25T01:06:34;8.30;;;5.57;;
53618;SDS011;68717;53.040;18.488;2023-04-25T01:06:47;8.65;;;5.32;;
53618;SDS011;68717;53.040;18.488;2023-04-25T01:07:00;9.38;;;5.30;;
53618;SDS011;68717;53.040;18.488;2023-04-25T01:07:14;9.30;;;5.30;;
53618;SDS011;68717;53.040;18.488;2023-04-25T01:07:27;9.23;;;5.38;;
53618;SDS011;68717;53.040;18.488;2023-04-25T01:07:40;8.73;;;5.32;;
53618;SDS011;68717;53.040;18.488;2023-04-25T01:07:53;7.50;;;5.10;;
53618;SDS011;68717;53.040;18.488;2023-04-25T01:08:07;8.77;;;5.15;;
53618;SDS011;68717;53.040;18.488;2023-04-25T01:08:20;9.38;;;5.25;;
53618;SDS011;68717;53.040;18.488;2023-04-25T01:08:36;9.95;;;5.47;;
53618;SDS011;68717;53.040;18.488;2023-04-25T01:08:50;9.40;;;5.32;;
53618;SDS011;68717;53.040;18.488;2023-04-25T01:09:03;8.75;;;5.30;;
53618;SDS011;68717;53.040;18.488;2023-04-25T01:09:16;10.18;;;5.55;;
53618;SDS011;68717;53.040;18.488;2023-04-25T01:09:31;10.80;;;5.60;;
53618;SDS011;68717;53.040;18.488;2023-04-25T01:09:44;8.77;;;5.43;;
53618;SDS011;68717;53.040;18.488;2023-04-25T01:09:58;8.15;;;5.25;;
53618;SDS011;68717;53.040;18.488;2023-04-25T01:10:11;7.90;;;5.20;;
53618;SDS011;68717;53.040;18.488;2023-04-25T01:10:23;8.10;;;5.15;;
53618;SDS011;68717;53.040;18.488;2023-04-25T01:10:36;9.02;;;5.10;;
53618;SDS011;68717;53.040;18.488;2023-04-25T01:10:50;9.00;;;5.10;;
53618;SDS011;68717;53.040;18.488;2023-04-25T01:11:03;8.13;;;4.90;;
53618;SDS011;68717;53.040;18.488;2023-04-25T01:11:16;8.20;;;5.10;;
53618;SDS011;68717;53.040;18.488;2023-04-25T01:11:29;7.97;;;5.20;;
53618;SDS011;68717;53.040;18.488;2023-04-25T01:11:42;8.23;;;5.18;;
53618;SDS011;68717;53.040;18.488;2023-04-25T01:11:55;8.52;;;5.10;;
53618;SDS011;68717;53.040;18.488;2023-04-25T01:12:07;8.70;;;5.18;;
53618;SDS011;68717;53.040;18.488;2023-04-25T01:12:21;8.40;;;5.20;;
53618;SDS011;68717;53.040;18.488;2023-04-25T01:12:35;8.27;;;5.25;;
53618;SDS011;68717;53.040;18.488;2023-04-25T01:12:47;8.43;;;5.20;;
53618;SDS011;68717;53.040;18.488;2023-04-25T01:13:00;8.30;;;5.00;;
53618;SDS011;68717;53.040;18.488;2023-04-25T01:13:13;8.10;;;4.93;;
53618;SDS011;68717;53.040;18.488;2023-04-25T01:13:26;7.95;;;5.25;;
53618;SDS011;68717;53.040;18.488;2023-04-25T01:13:39;8.10;;;5.20;;
53618;SDS011;68717;53.040;18.488;2023-04-25T01:13:53;7.68;;;4.95;;
53618;SDS011;68717;53.040;18.488;2023-04-25T01:14:06;7.75;;;4.90;;
53618;SDS011;68717;53.040;18.488;2023-04-25T01:14:19;8.38;;;4.90;;
53618;SDS011;68717;53.040;18.488;2023-04-25T01:14:32;7.97;;;4.82;;
53618;SDS011;68717;53.040;18.488;2023-04-25T01:14:44;7.78;;;4.88;;
53618;SDS011;68717;53.040;18.488;2023-04-25T01:14:58;8.25;;;4.90;;
53618;SDS011;68717;53.040;18.488;2023-04-25T01:15:11;8.80;;;5.00;;
53618;SDS011;68717;53.040;18.488;2023-04-25T01:15:25;8.43;;;4.85;;
53618;SDS011;68717;53.040;18.488;2023-04-25T01:15:37;7.90;;;4.80;;
53618;SDS011;68717;53.040;18.488;2023-04-25T01:15:50;8.02;;;4.63;;
53618;SDS011;68717;53.040;18.488;2023-04-25T01:16:03;7.93;;;4.72;;
53618;SDS011;68717;53.040;18.488;2023-04-25T01:16:17;8.68;;;4.80;;
53618;SDS011;68717;53.040;18.488;2023-04-25T01:16:29;8.02;;;4.60;;
53618;SDS011;68717;53.040;18.488;2023-04-25T01:16:45;8.00;;;4.72;;
53618;SDS011;68717;53.040;18.488;2023-04-25T01:16:59;7.80;;;4.60;;
53618;SDS011;68717;53.040;18.488;2023-04-25T01:17:12;8.90;;;4.60;;
53618;SDS011;68717;53.040;18.488;2023-04-25T01:17:25;11.57;;;4.50;;
53618;SDS011;68717;53.040;18.488;2023-04-25T01:17:39;11.02;;;4.40;;
53618;SDS011;68717;53.040;18.488;2023-04-25T01:17:52;7.95;;;4.40;;
53618;SDS011;68717;53.040;18.488;2023-04-25T01:18:07;10.52;;;4.60;;
53618;SDS011;68717;53.040;18.488;2023-04-25T01:18:20;10.90;;;4.60;;
53618;SDS011;68717;53.040;18.488;2023-04-25T01:18:33;8.05;;;4.40;;
53618;SDS011;68717;53.040;18.488;2023-04-25T01:18:46;7.85;;;4.32;;
53618;SDS011;68717;53.040;18.488;2023-04-25T01:18:59;7.45;;;4.30;;
53618;SDS011;68717;53.040;18.488;2023-04-25T01:19:12;7.20;;;4.43;;
53618;SDS011;68717;53.040;18.488;2023-04-25T01:19:29;8.15;;;4.70;;
53618;SDS011;68717;53.040;18.488;2023-04-25T01:19:43;7.75;;;4.35;;
53618;SDS011;68717;53.040;18.488;2023-04-25T01:19:56;6.75;;;4.20;;
53618;SDS011;68717;53.040;18.488;2023-04-25T01:20:09;6.90;;;4.38;;
53618;SDS011;68717;53.040;18.488;2023-04-25T01:20:24;7.68;;;4.43;;